createdAt,value
2019-04-20T00:00:06.233Z,1028.08
2019-04-20T00:01:03.376Z,1028.07
2019-04-20T00:02:08.235Z,1028.11
2019-04-20T00:03:03.391Z,1028.08
2019-04-20T00:04:01.437Z,1028.11
2019-04-20T00:05:01.426Z,1028.10
2019-04-20T00:06:01.588Z,1028.05
2019-04-20T00:07:01.938Z,1028.10
2019-04-20T00:08:09.133Z,1028.07
2019-04-20T00:09:07.394Z,1028.09
2019-04-20T00:10:08.712Z,1028.05
2019-04-20T00:11:08.070Z,1028.01
2019-04-20T00:12:10.841Z,1027.99
2019-04-20T00:13:16.607Z,1027.99
2019-04-20T00:14:08.965Z,1028.00
2019-04-20T00:15:02.964Z,1027.98
2019-04-20T00:16:02.024Z,1027.99
2019-04-20T00:17:01.300Z,1028.00
2019-04-20T00:18:04.605Z,1027.98
2019-04-20T00:19:05.228Z,1027.97
2019-04-20T00:20:09.254Z,1027.92
2019-04-20T00:21:08.271Z,1027.95
2019-04-20T00:22:07.042Z,1027.89
2019-04-20T00:23:02.231Z,1027.91
2019-04-20T00:24:10.315Z,1027.90
2019-04-20T00:25:06.610Z,1027.89
2019-04-20T00:26:12.303Z,1027.89
2019-04-20T00:27:28.435Z,1027.86
2019-04-20T00:28:19.930Z,1027.84
2019-04-20T00:29:23.938Z,1027.86
2019-04-20T00:30:24.839Z,1027.86
2019-04-20T00:31:19.014Z,1027.83
2019-04-20T00:32:12.573Z,1027.82
2019-04-20T00:33:14.765Z,1027.78
2019-04-20T00:34:11.171Z,1027.80
2019-04-20T00:35:02.244Z,1027.78
2019-04-20T00:36:01.197Z,1027.76
2019-04-20T00:37:02.329Z,1027.76
2019-04-20T00:38:01.279Z,1027.78
2019-04-20T00:39:04.535Z,1027.81
2019-04-20T00:40:02.046Z,1027.79
2019-04-20T00:41:05.607Z,1027.84
2019-04-20T00:42:06.570Z,1027.79
2019-04-20T00:43:03.021Z,1027.82
2019-04-20T00:44:08.337Z,1027.76
2019-04-20T00:45:08.463Z,1027.80
2019-04-20T00:46:09.172Z,1027.78
2019-04-20T00:47:12.903Z,1027.72
2019-04-20T00:48:06.801Z,1027.79
2019-04-20T00:49:17.259Z,1027.74
2019-04-20T00:50:21.340Z,1027.73
2019-04-20T00:51:23.885Z,1027.69
2019-04-20T00:52:31.155Z,1027.72
2019-04-20T00:53:12.411Z,1027.73
2019-04-20T00:54:02.658Z,1027.73
2019-04-20T00:55:02.382Z,1027.71
2019-04-20T00:56:01.292Z,1027.75
2019-04-20T00:57:14.404Z,1027.71
2019-04-20T00:58:14.751Z,1027.73
2019-04-20T00:59:12.977Z,1027.75
2019-04-20T01:00:24.389Z,1027.70
2019-04-20T01:01:20.316Z,1027.71
2019-04-20T01:02:19.197Z,1027.75
2019-04-20T01:03:19.767Z,1027.68
2019-04-20T01:04:21.204Z,1027.65
2019-04-20T01:05:18.003Z,1027.76
2019-04-20T01:06:22.187Z,1027.75
2019-04-20T01:07:15.199Z,1027.73
2019-04-20T01:08:04.905Z,1027.71
2019-04-20T01:09:01.345Z,1027.68
2019-04-20T01:10:00.725Z,1027.68
2019-04-20T01:11:01.516Z,1027.70
2019-04-20T01:12:05.121Z,1027.66
2019-04-20T01:13:08.716Z,1027.65
2019-04-20T01:14:07.103Z,1027.63
2019-04-20T01:15:05.581Z,1027.63
2019-04-20T01:16:08.708Z,1027.65
2019-04-20T01:17:11.404Z,1027.62
2019-04-20T01:18:01.637Z,1027.68
2019-04-20T01:19:00.628Z,1027.65
2019-04-20T01:20:00.615Z,1027.68
2019-04-20T01:21:07.693Z,1027.60
2019-04-20T01:22:07.085Z,1027.67
2019-04-20T01:23:07.470Z,1027.64
2019-04-20T01:24:04.638Z,1027.60
2019-04-20T01:25:11.992Z,1027.59
2019-04-20T01:26:06.141Z,1027.57
2019-04-20T01:27:04.112Z,1027.60
2019-04-20T01:28:13.011Z,1027.56
2019-04-20T01:29:15.839Z,1027.53
2019-04-20T01:30:10.501Z,1027.53
2019-04-20T01:31:17.728Z,1027.55
2019-04-20T01:32:10.456Z,1027.54
2019-04-20T01:33:16.297Z,1027.47
2019-04-20T01:34:08.357Z,1027.51
2019-04-20T01:35:19.688Z,1027.53
2019-04-20T01:36:19.536Z,1027.48
2019-04-20T01:37:19.543Z,1027.47
2019-04-20T01:38:25.056Z,1027.49
2019-04-20T01:39:13.639Z,1027.47
2019-04-20T01:40:04.436Z,1027.51
2019-04-20T01:41:01.251Z,1027.52
2019-04-20T01:42:00.419Z,1027.54
2019-04-20T01:43:01.565Z,1027.56
2019-04-20T01:44:00.533Z,1027.60
2019-04-20T01:45:00.387Z,1027.57
2019-04-20T01:46:08.125Z,1027.58
2019-04-20T01:47:04.889Z,1027.56
2019-04-20T01:48:03.021Z,1027.50
2019-04-20T01:49:09.189Z,1027.55
2019-04-20T01:50:08.495Z,1027.49
2019-04-20T01:51:07.153Z,1027.52
2019-04-20T01:52:10.779Z,1027.53
2019-04-20T01:53:12.513Z,1027.60
2019-04-20T01:54:15.852Z,1027.55
2019-04-20T01:55:17.405Z,1027.60
2019-04-20T01:56:18.140Z,1027.59
2019-04-20T01:57:11.602Z,1027.60
2019-04-20T01:58:17.684Z,1027.60
2019-04-20T01:59:16.386Z,1027.60
2019-04-20T02:00:09.479Z,1027.57
2019-04-20T02:01:09.797Z,1027.55
2019-04-20T02:02:05.183Z,1027.54
2019-04-20T02:03:04.814Z,1027.53
2019-04-20T02:04:01.755Z,1027.53
2019-04-20T02:05:11.339Z,1027.50
2019-04-20T02:06:06.153Z,1027.44
2019-04-20T02:07:03.346Z,1027.49
2019-04-20T02:08:00.358Z,1027.54
2019-04-20T02:09:06.462Z,1027.50
2019-04-20T02:10:05.035Z,1027.50
2019-04-20T02:11:05.377Z,1027.52
2019-04-20T02:12:08.433Z,1027.50
2019-04-20T02:13:04.355Z,1027.51
2019-04-20T02:14:04.920Z,1027.53
2019-04-20T02:15:04.372Z,1027.51
2019-04-20T02:16:11.438Z,1027.51
2019-04-20T02:17:09.592Z,1027.46
2019-04-20T02:18:16.225Z,1027.58
2019-04-20T02:19:13.799Z,1027.49
2019-04-20T02:20:25.280Z,1027.47
2019-04-20T02:21:22.327Z,1027.48
2019-04-20T02:22:13.204Z,1027.52
2019-04-20T02:23:14.540Z,1027.51
2019-04-20T02:24:04.637Z,1027.50
2019-04-20T02:25:01.729Z,1027.56
2019-04-20T02:26:00.853Z,1027.59
2019-04-20T02:26:59.950Z,1027.56
2019-04-20T02:28:18.942Z,1027.58
2019-04-20T02:29:24.646Z,1027.50
2019-04-20T02:30:32.494Z,1027.56
2019-04-20T02:32:45.695Z,1027.56
2019-04-20T02:33:45.016Z,1027.52
2019-04-20T02:34:39.785Z,1027.55
2019-04-20T02:35:36.711Z,1027.52
2019-04-20T02:36:45.756Z,1027.54
2019-04-20T02:37:36.266Z,1027.58
2019-04-20T02:38:56.428Z,1027.59
2019-04-20T02:39:37.555Z,1027.52
2019-04-20T02:40:45.172Z,1027.55
2019-04-20T02:42:34.071Z,1027.57
2019-04-20T02:43:51.712Z,1027.62
2019-04-20T02:46:36.587Z,1027.63
2019-04-20T02:47:43.216Z,1027.57
2019-04-20T02:48:35.677Z,1027.60
2019-04-20T02:49:35.456Z,1027.58
2019-04-20T02:51:39.291Z,1027.63
2019-04-20T02:52:38.228Z,1027.57
2019-04-20T02:54:26.174Z,1027.60
2019-04-20T02:55:48.315Z,1027.63
2019-04-20T02:58:34.732Z,1027.57
2019-04-20T03:00:25.089Z,1027.53
2019-04-20T03:01:20.496Z,1027.56
2019-04-20T03:02:19.497Z,1027.55
2019-04-20T03:03:16.369Z,1027.60
2019-04-20T03:04:04.881Z,1027.62
2019-04-20T03:05:13.688Z,1027.63
2019-04-20T03:06:13.369Z,1027.65
2019-04-20T03:07:14.903Z,1027.64
2019-04-20T03:08:20.594Z,1027.62
2019-04-20T03:10:17.674Z,1027.62
2019-04-20T03:11:20.873Z,1027.60
2019-04-20T03:12:23.817Z,1027.58
2019-04-20T03:13:19.765Z,1027.62
2019-04-20T03:14:19.057Z,1027.59
2019-04-20T03:15:23.967Z,1027.61
2019-04-20T03:16:21.919Z,1027.61
2019-04-20T03:17:21.429Z,1027.63
2019-04-20T03:18:21.289Z,1027.61
2019-04-20T03:19:18.742Z,1027.65
2019-04-20T03:20:25.616Z,1027.67
2019-04-20T03:21:24.758Z,1027.67
2019-04-20T03:22:51.236Z,1027.67
2019-04-20T03:24:29.162Z,1027.67
2019-04-20T03:25:23.812Z,1027.65
2019-04-20T03:26:22.524Z,1027.65
2019-04-20T03:27:22.279Z,1027.64
2019-04-20T03:28:18.298Z,1027.62
2019-04-20T03:29:13.009Z,1027.58
2019-04-20T03:30:58.777Z,1027.61
2019-04-20T03:31:53.730Z,1027.61
2019-04-20T03:33:44.770Z,1027.64
2019-04-20T03:34:48.668Z,1027.59
2019-04-20T03:35:24.582Z,1027.60
2019-04-20T03:36:31.821Z,1027.60
2019-04-20T03:37:26.729Z,1027.64
2019-04-20T03:38:19.856Z,1027.65
2019-04-20T03:39:19.075Z,1027.63
2019-04-20T03:40:16.901Z,1027.61
2019-04-20T03:41:11.739Z,1027.60
2019-04-20T03:42:01.041Z,1027.62
2019-04-20T03:42:59.174Z,1027.61
2019-04-20T03:44:04.487Z,1027.60
2019-04-20T03:45:05.773Z,1027.52
2019-04-20T03:46:07.414Z,1027.56
2019-04-20T03:47:05.415Z,1027.60
2019-04-20T03:48:09.018Z,1027.54
2019-04-20T03:49:21.322Z,1027.57
2019-04-20T03:50:25.647Z,1027.58
2019-04-20T03:51:23.928Z,1027.59
2019-04-20T03:52:19.282Z,1027.57
2019-04-20T03:53:23.688Z,1027.59
2019-04-20T03:54:16.560Z,1027.64
2019-04-20T03:55:16.209Z,1027.59
2019-04-20T03:56:26.428Z,1027.56
2019-04-20T03:57:19.701Z,1027.61
2019-04-20T03:58:19.722Z,1027.59
2019-04-20T03:59:11.576Z,1027.64
2019-04-20T04:00:16.241Z,1027.62
2019-04-20T04:01:27.290Z,1027.66
2019-04-20T04:02:29.709Z,1027.63
2019-04-20T04:03:32.831Z,1027.61
2019-04-20T04:04:25.407Z,1027.65
2019-04-20T04:05:19.377Z,1027.61
2019-04-20T04:06:12.846Z,1027.60
2019-04-20T04:07:02.758Z,1027.52
2019-04-20T04:08:10.572Z,1027.57
2019-04-20T04:09:12.183Z,1027.59
2019-04-20T04:10:16.914Z,1027.62
2019-04-20T04:11:18.930Z,1027.59
2019-04-20T04:12:12.177Z,1027.63
2019-04-20T04:13:01.059Z,1027.68
2019-04-20T04:13:58.849Z,1027.66
2019-04-20T04:14:59.848Z,1027.70
2019-04-20T04:16:03.278Z,1027.71
2019-04-20T04:17:02.597Z,1027.68
2019-04-20T04:18:07.400Z,1027.73
2019-04-20T04:19:09.980Z,1027.70
2019-04-20T04:20:05.094Z,1027.67
2019-04-20T04:21:06.329Z,1027.71
2019-04-20T04:22:12.261Z,1027.68
2019-04-20T04:23:16.245Z,1027.68
2019-04-20T04:24:12.890Z,1027.71
2019-04-20T04:25:14.876Z,1027.68
2019-04-20T04:26:16.666Z,1027.70
2019-04-20T04:27:14.955Z,1027.68
2019-04-20T04:28:15.406Z,1027.66
2019-04-20T04:29:19.153Z,1027.69
2019-04-20T04:30:16.499Z,1027.66
2019-04-20T04:31:16.507Z,1027.71
2019-04-20T04:32:35.496Z,1027.70
2019-04-20T04:33:40.232Z,1027.66
2019-04-20T04:34:17.724Z,1027.75
2019-04-20T04:35:14.991Z,1027.70
2019-04-20T04:36:13.769Z,1027.70
2019-04-20T04:37:21.656Z,1027.64
2019-04-20T04:38:24.066Z,1027.73
2019-04-20T04:39:22.553Z,1027.71
2019-04-20T04:40:29.599Z,1027.71
2019-04-20T04:41:25.615Z,1027.70
2019-04-20T04:42:23.759Z,1027.69
2019-04-20T04:43:19.789Z,1027.65
2019-04-20T04:44:15.210Z,1027.67
2019-04-20T04:45:04.907Z,1027.64
2019-04-20T04:45:59.627Z,1027.67
2019-04-20T04:47:02.748Z,1027.68
2019-04-20T04:47:59.818Z,1027.65
2019-04-20T04:49:08.775Z,1027.65
2019-04-20T04:50:09.164Z,1027.69
2019-04-20T04:51:06.253Z,1027.67
2019-04-20T04:52:06.267Z,1027.66
2019-04-20T04:53:07.587Z,1027.66
2019-04-20T04:54:10.208Z,1027.62
2019-04-20T04:55:10.873Z,1027.67
2019-04-20T04:56:05.731Z,1027.65
2019-04-20T04:56:59.303Z,1027.67
2019-04-20T04:57:58.329Z,1027.70
2019-04-20T04:58:58.303Z,1027.69
2019-04-20T04:59:59.441Z,1027.68
2019-04-20T05:01:05.605Z,1027.70
2019-04-20T05:02:00.497Z,1027.72
2019-04-20T05:03:03.856Z,1027.67
2019-04-20T05:04:23.251Z,1027.69
2019-04-20T05:05:17.611Z,1027.71
2019-04-20T05:06:19.685Z,1027.68
2019-04-20T05:07:12.814Z,1027.67
2019-04-20T05:08:10.231Z,1027.73
2019-04-20T05:09:02.348Z,1027.69
2019-04-20T05:09:59.230Z,1027.71
2019-04-20T05:10:58.351Z,1027.70
2019-04-20T05:12:05.435Z,1027.70
2019-04-20T05:12:59.132Z,1027.66
2019-04-20T05:14:03.268Z,1027.67
2019-04-20T05:15:07.597Z,1027.70
2019-04-20T05:16:13.203Z,1027.68
2019-04-20T05:17:15.103Z,1027.71
2019-04-20T05:18:20.654Z,1027.68
2019-04-20T05:19:19.635Z,1027.69
2019-04-20T05:20:19.017Z,1027.70
2019-04-20T05:21:20.802Z,1027.73
2019-04-20T05:22:20.606Z,1027.73
2019-04-20T05:23:12.942Z,1027.75
2019-04-20T05:24:13.186Z,1027.79
2019-04-20T05:25:18.439Z,1027.74
2019-04-20T05:26:20.012Z,1027.70
2019-04-20T05:27:20.788Z,1027.72
2019-04-20T05:28:14.456Z,1027.74
2019-04-20T05:29:08.493Z,1027.78
2019-04-20T05:29:59.224Z,1027.79
2019-04-20T05:31:02.811Z,1027.72
2019-04-20T05:32:07.342Z,1027.71
2019-04-20T05:33:05.777Z,1027.67
2019-04-20T05:34:20.300Z,1027.70
2019-04-20T05:35:23.673Z,1027.63
2019-04-20T05:36:18.602Z,1027.70
2019-04-20T05:37:29.731Z,1027.68
2019-04-20T05:38:28.353Z,1027.64
2019-04-20T05:40:23.745Z,1027.60
2019-04-20T05:41:17.381Z,1027.67
2019-04-20T05:42:26.258Z,1027.71
2019-04-20T05:43:15.384Z,1027.66
2019-04-20T05:44:12.788Z,1027.76
2019-04-20T05:45:16.697Z,1027.66
2019-04-20T05:46:22.009Z,1027.71
2019-04-20T05:47:16.939Z,1027.63
2019-04-20T05:48:14.280Z,1027.64
2019-04-20T05:49:23.415Z,1027.69
2019-04-20T05:50:17.897Z,1027.70
2019-04-20T05:51:26.885Z,1027.71
2019-04-20T05:52:31.628Z,1027.71
2019-04-20T05:53:19.269Z,1027.67
2019-04-20T05:54:23.456Z,1027.74
2019-04-20T05:55:21.115Z,1027.66
2019-04-20T05:56:20.338Z,1027.69
2019-04-20T05:57:25.196Z,1027.62
2019-04-20T05:58:23.351Z,1027.62
2019-04-20T05:59:17.858Z,1027.65
2019-04-20T06:00:21.509Z,1027.60
2019-04-20T06:01:20.245Z,1027.65
2019-04-20T06:02:23.372Z,1027.64
2019-04-20T06:03:18.478Z,1027.66
2019-04-20T06:04:30.038Z,1027.66
2019-04-20T06:05:25.546Z,1027.66
2019-04-20T06:06:14.111Z,1027.64
2019-04-20T06:07:23.962Z,1027.67
2019-04-20T06:08:26.391Z,1027.72
2019-04-20T06:09:22.956Z,1027.66
2019-04-20T06:10:20.475Z,1027.64
2019-04-20T06:11:20.974Z,1027.66
2019-04-20T06:12:20.107Z,1027.65
2019-04-20T06:13:15.009Z,1027.68
2019-04-20T06:14:08.045Z,1027.66
2019-04-20T06:15:11.658Z,1027.63
2019-04-20T06:16:14.439Z,1027.62
2019-04-20T06:17:20.949Z,1027.68
2019-04-20T06:18:13.551Z,1027.65
2019-04-20T06:19:26.460Z,1027.70
2019-04-20T06:20:19.741Z,1027.66
2019-04-20T06:21:26.503Z,1027.67
2019-04-20T06:22:29.633Z,1027.70
2019-04-20T06:23:24.589Z,1027.70
2019-04-20T06:24:26.735Z,1027.72
2019-04-20T06:26:36.987Z,1027.70
2019-04-20T06:27:14.904Z,1027.68
2019-04-20T06:28:17.537Z,1027.67
2019-04-20T06:30:13.744Z,1027.69
2019-04-20T06:31:26.491Z,1027.69
2019-04-20T06:32:29.527Z,1027.75
2019-04-20T06:33:21.954Z,1027.68
2019-04-20T06:35:33.586Z,1027.70
2019-04-20T06:36:27.502Z,1027.69
2019-04-20T06:37:19.367Z,1027.69
2019-04-20T06:38:39.695Z,1027.73
2019-04-20T06:39:19.978Z,1027.76
2019-04-20T06:40:36.398Z,1027.67
2019-04-20T06:41:31.774Z,1027.68
2019-04-20T06:42:34.817Z,1027.69
2019-04-20T06:43:19.267Z,1027.71
2019-04-20T06:44:23.790Z,1027.70
2019-04-20T06:45:27.734Z,1027.73
2019-04-20T06:46:24.083Z,1027.79
2019-04-20T06:47:19.908Z,1027.79
2019-04-20T06:48:31.047Z,1027.80
2019-04-20T06:49:22.686Z,1027.80
2019-04-20T06:50:18.495Z,1027.76
2019-04-20T06:51:23.350Z,1027.78
2019-04-20T06:52:24.315Z,1027.80
2019-04-20T06:53:28.582Z,1027.80
2019-04-20T06:54:10.458Z,1027.78
2019-04-20T06:55:13.892Z,1027.77
2019-04-20T06:56:23.499Z,1027.76
2019-04-20T06:57:19.615Z,1027.77
2019-04-20T06:58:36.387Z,1027.73
2019-04-20T06:59:27.718Z,1027.75
2019-04-20T07:00:34.700Z,1027.81
2019-04-20T07:01:17.170Z,1027.81
2019-04-20T07:02:22.173Z,1027.74
2019-04-20T07:03:30.941Z,1027.83
2019-04-20T07:05:20.117Z,1027.83
2019-04-20T07:06:41.847Z,1027.83
2019-04-20T07:07:19.595Z,1027.79
2019-04-20T07:08:34.601Z,1027.82
2019-04-20T07:09:21.761Z,1027.85
2019-04-20T07:11:25.344Z,1027.81
2019-04-20T07:12:17.102Z,1027.87
2019-04-20T07:13:11.610Z,1027.89
2019-04-20T07:14:02.914Z,1027.81
2019-04-20T07:15:16.310Z,1027.82
2019-04-20T07:16:21.373Z,1027.87
2019-04-20T07:17:31.621Z,1027.83
2019-04-20T07:18:24.559Z,1027.87
2019-04-20T07:19:21.372Z,1027.89
2019-04-20T07:20:15.482Z,1027.92
2019-04-20T07:21:23.450Z,1027.92
2019-04-20T07:22:33.485Z,1027.92
2019-04-20T07:23:26.599Z,1027.95
2019-04-20T07:24:25.186Z,1027.88
2019-04-20T07:25:23.162Z,1027.91
2019-04-20T07:26:22.258Z,1027.91
2019-04-20T07:27:17.854Z,1027.89
2019-04-20T07:28:20.302Z,1027.86
2019-04-20T07:29:20.994Z,1027.85
2019-04-20T07:30:19.468Z,1027.89
2019-04-20T07:31:20.509Z,1027.93
2019-04-20T07:32:10.262Z,1027.86
2019-04-20T07:33:21.676Z,1027.86
2019-04-20T07:34:23.012Z,1027.91
2019-04-20T07:35:23.253Z,1027.92
2019-04-20T07:36:26.594Z,1027.90
2019-04-20T07:37:51.783Z,1027.94
2019-04-20T07:39:26.599Z,1027.95
2019-04-20T07:40:28.983Z,1028.03
2019-04-20T07:41:28.438Z,1028.05
2019-04-20T07:42:27.240Z,1028.03
2019-04-20T07:43:17.413Z,1028.07
2019-04-20T07:44:29.885Z,1028.07
2019-04-20T07:45:33.006Z,1028.08
2019-04-20T07:46:34.593Z,1028.13
2019-04-20T07:47:22.046Z,1028.08
2019-04-20T07:48:30.740Z,1028.08
2019-04-20T07:49:22.435Z,1028.07
2019-04-20T07:50:13.552Z,1028.10
2019-04-20T07:51:06.805Z,1028.05
2019-04-20T07:51:57.671Z,1028.06
2019-04-20T07:53:13.489Z,1028.10
2019-04-20T07:54:24.499Z,1028.08
2019-04-20T07:55:42.243Z,1028.12
2019-04-20T07:56:20.792Z,1028.15
2019-04-20T07:57:14.612Z,1028.15
2019-04-20T07:58:08.340Z,1028.07
2019-04-20T07:59:11.631Z,1028.07
2019-04-20T08:00:19.898Z,1028.07
2019-04-20T08:01:22.513Z,1028.15
2019-04-20T08:02:23.569Z,1028.13
2019-04-20T08:03:22.278Z,1028.11
2019-04-20T08:04:17.399Z,1028.12
2019-04-20T08:05:11.928Z,1028.14
2019-04-20T08:06:06.830Z,1028.19
2019-04-20T08:07:02.123Z,1028.18
2019-04-20T08:08:17.154Z,1028.19
2019-04-20T08:09:12.832Z,1028.15
2019-04-20T08:10:04.013Z,1028.17
2019-04-20T08:11:13.867Z,1028.18
2019-04-20T08:12:19.350Z,1028.16
2019-04-20T08:13:30.561Z,1028.12
2019-04-20T08:14:24.230Z,1028.15
2019-04-20T08:15:32.252Z,1028.19
2019-04-20T08:16:24.345Z,1028.14
2019-04-20T08:17:41.915Z,1028.15
2019-04-20T08:18:21.502Z,1028.12
2019-04-20T08:19:17.627Z,1028.12
2019-04-20T08:20:15.828Z,1028.12
2019-04-20T08:21:12.942Z,1028.17
2019-04-20T08:22:21.879Z,1028.13
2019-04-20T08:23:18.564Z,1028.11
2019-04-20T08:24:17.099Z,1028.11
2019-04-20T08:25:12.534Z,1028.09
2019-04-20T08:26:07.805Z,1028.11
2019-04-20T08:27:01.067Z,1028.09
2019-04-20T08:27:57.167Z,1028.10
2019-04-20T08:29:01.807Z,1028.07
2019-04-20T08:30:09.191Z,1028.10
2019-04-20T08:31:10.365Z,1028.13
2019-04-20T08:32:17.911Z,1028.12
2019-04-20T08:33:14.513Z,1028.09
2019-04-20T08:34:38.323Z,1028.10
2019-04-20T08:35:23.144Z,1028.12
2019-04-20T08:36:18.642Z,1028.16
2019-04-20T08:37:17.330Z,1028.16
2019-04-20T08:40:19.796Z,1028.07
2019-04-20T08:41:12.876Z,1028.10
2019-04-20T08:42:16.469Z,1028.07
2019-04-20T08:43:34.200Z,1028.12
2019-04-20T08:44:42.619Z,1028.17
2019-04-20T08:45:16.323Z,1028.15
2019-04-20T08:46:15.069Z,1028.13
2019-04-20T08:47:27.434Z,1028.11
2019-04-20T08:48:23.176Z,1028.10
2019-04-20T08:49:27.721Z,1028.15
2019-04-20T08:50:19.908Z,1028.16
2019-04-20T08:51:19.494Z,1028.13
2019-04-20T08:52:38.409Z,1027.97
2019-04-20T08:53:24.792Z,1028.01
2019-04-20T08:54:18.005Z,1028.03
2019-04-20T08:55:14.956Z,1028.02
2019-04-20T08:56:11.932Z,1027.95
2019-04-20T08:57:01.233Z,1027.98
2019-04-20T08:57:56.808Z,1027.92
2019-04-20T08:58:57.071Z,1027.87
2019-04-20T08:59:56.068Z,1027.90
2019-04-20T09:01:01.326Z,1027.92
2019-04-20T09:01:58.924Z,1027.77
2019-04-20T09:03:05.736Z,1027.81
2019-04-20T09:04:08.997Z,1027.85
2019-04-20T09:05:03.155Z,1027.83
2019-04-20T09:06:06.722Z,1027.81
2019-04-20T09:07:07.723Z,1027.77
2019-04-20T09:08:06.742Z,1027.87
2019-04-20T09:09:22.424Z,1027.81
2019-04-20T09:10:24.926Z,1027.84
2019-04-20T09:11:15.362Z,1027.85
2019-04-20T09:12:14.548Z,1027.84
2019-04-20T09:13:08.406Z,1027.82
2019-04-20T09:14:00.173Z,1027.78
2019-04-20T09:14:57.355Z,1027.82
2019-04-20T09:15:55.681Z,1027.83
2019-04-20T09:17:00.061Z,1027.87
2019-04-20T09:18:00.995Z,1027.85
2019-04-20T09:19:03.611Z,1027.84
2019-04-20T09:20:06.275Z,1027.83
2019-04-20T09:21:05.024Z,1027.89
2019-04-20T09:22:06.407Z,1027.91
2019-04-20T09:23:13.218Z,1027.87
2019-04-20T09:24:21.739Z,1027.80
2019-04-20T09:25:27.798Z,1027.83
2019-04-20T09:26:15.023Z,1027.77
2019-04-20T09:27:12.924Z,1027.73
2019-04-20T09:28:07.250Z,1027.76
2019-04-20T09:29:06.883Z,1027.78
2019-04-20T09:30:21.589Z,1027.77
2019-04-20T09:31:13.242Z,1027.74
2019-04-20T09:32:20.911Z,1027.74
2019-04-20T09:33:14.674Z,1027.62
2019-04-20T09:34:14.422Z,1027.66
2019-04-20T09:35:13.545Z,1027.69
2019-04-20T09:36:10.316Z,1027.74
2019-04-20T09:37:16.479Z,1027.70
2019-04-20T09:38:11.807Z,1027.71
2019-04-20T09:39:10.418Z,1027.73
2019-04-20T09:40:15.488Z,1027.69
2019-04-20T09:41:22.006Z,1027.66
2019-04-20T09:42:01.447Z,1027.66
2019-04-20T09:42:56.348Z,1027.73
2019-04-20T09:43:56.152Z,1027.75
2019-04-20T09:44:58.975Z,1027.77
2019-04-20T09:46:01.659Z,1027.73
2019-04-20T09:46:59.694Z,1027.76
2019-04-20T09:47:57.136Z,1027.75
2019-04-20T09:48:59.889Z,1027.78
2019-04-20T09:50:08.982Z,1027.74
2019-04-20T09:51:19.239Z,1027.80
2019-04-20T09:52:12.230Z,1027.80
2019-04-20T09:53:11.534Z,1027.79
2019-04-20T09:54:12.507Z,1027.80
2019-04-20T09:55:12.118Z,1027.62
2019-04-20T09:56:14.377Z,1027.70
2019-04-20T09:57:13.785Z,1027.70
2019-04-20T09:58:09.792Z,1027.73
2019-04-20T09:59:19.221Z,1027.78
2019-04-20T10:00:13.400Z,1027.81
2019-04-20T10:01:09.963Z,1027.78
2019-04-20T10:02:06.628Z,1027.79
2019-04-20T10:02:56.168Z,1027.73
2019-04-20T10:03:55.150Z,1027.79
2019-04-20T10:04:55.576Z,1027.73
2019-04-20T10:05:55.915Z,1027.72
2019-04-20T10:06:55.308Z,1027.70
2019-04-20T10:07:59.893Z,1027.55
2019-04-20T10:08:59.809Z,1027.66
2019-04-20T10:09:56.098Z,1027.74
2019-04-20T10:10:56.077Z,1027.70
2019-04-20T10:11:55.406Z,1027.66
2019-04-20T10:12:56.291Z,1027.67
2019-04-20T10:13:56.423Z,1027.64
2019-04-20T10:14:57.625Z,1027.64
2019-04-20T10:15:56.037Z,1027.66
2019-04-20T10:16:55.858Z,1027.65
2019-04-20T10:17:56.066Z,1027.62
2019-04-20T10:18:55.310Z,1027.60
2019-04-20T10:19:55.681Z,1027.58
2019-04-20T10:20:55.784Z,1027.63
2019-04-20T10:21:54.987Z,1027.64
2019-04-20T10:22:56.281Z,1027.60
2019-04-20T10:23:54.964Z,1027.59
2019-04-20T10:24:55.931Z,1027.62
2019-04-20T10:25:56.422Z,1027.60
2019-04-20T10:26:54.944Z,1027.57
2019-04-20T10:27:55.774Z,1027.62
2019-04-20T10:28:55.259Z,1027.54
2019-04-20T10:29:55.557Z,1027.57
2019-04-20T10:30:54.900Z,1027.55
2019-04-20T10:31:58.351Z,1027.58
2019-04-20T10:32:55.899Z,1027.52
2019-04-20T10:33:55.642Z,1027.52
2019-04-20T10:34:54.945Z,1027.52
2019-04-20T10:35:54.861Z,1027.56
2019-04-20T10:36:55.510Z,1027.48
2019-04-20T10:37:55.652Z,1027.48
2019-04-20T10:38:54.887Z,1027.47
2019-04-20T10:39:54.820Z,1027.47
2019-04-20T10:41:05.338Z,1027.48
2019-04-20T10:41:59.535Z,1027.49
2019-04-20T10:42:59.436Z,1027.48
2019-04-20T10:43:56.706Z,1027.46
2019-04-20T10:44:56.863Z,1027.45
2019-04-20T10:45:55.026Z,1027.48
2019-04-20T10:46:54.766Z,1027.40
2019-04-20T10:47:55.044Z,1027.44
2019-04-20T10:48:57.244Z,1027.40
2019-04-20T10:49:56.589Z,1027.39
2019-04-20T10:50:54.848Z,1027.37
2019-04-20T10:51:55.779Z,1027.35
2019-04-20T10:52:55.996Z,1027.37
2019-04-20T10:53:56.084Z,1027.41
2019-04-20T10:54:54.680Z,1027.40
2019-04-20T10:55:55.698Z,1027.44
2019-04-20T10:56:55.462Z,1027.42
2019-04-20T10:57:55.608Z,1027.44
2019-04-20T10:58:55.855Z,1027.39
2019-04-20T10:59:55.373Z,1027.40
2019-04-20T11:00:55.723Z,1027.40
2019-04-20T11:01:55.838Z,1027.43
2019-04-20T11:02:55.461Z,1027.45
2019-04-20T11:03:54.599Z,1027.46
2019-04-20T11:04:54.846Z,1027.41
2019-04-20T11:05:54.580Z,1027.39
2019-04-20T11:06:54.596Z,1027.40
2019-04-20T11:07:54.757Z,1027.39
2019-04-20T11:08:54.553Z,1027.35
2019-04-20T11:10:05.284Z,1027.37
2019-04-20T11:11:08.324Z,1027.32
2019-04-20T11:11:56.572Z,1027.37
2019-04-20T11:12:54.517Z,1027.21
2019-04-20T11:13:55.343Z,1027.23
2019-04-20T11:14:54.579Z,1027.19
2019-04-20T11:15:54.656Z,1027.15
2019-04-20T11:16:54.484Z,1027.14
2019-04-20T11:17:55.397Z,1027.16
2019-04-20T11:18:55.584Z,1027.14
2019-04-20T11:19:54.995Z,1027.17
2019-04-20T11:20:55.333Z,1027.20
2019-04-20T11:21:54.520Z,1027.13
2019-04-20T11:22:54.426Z,1027.09
2019-04-20T11:23:54.415Z,1027.07
2019-04-20T11:24:54.407Z,1027.18
2019-04-20T11:25:54.399Z,1027.11
2019-04-20T11:26:54.388Z,1027.11
2019-04-20T11:27:54.497Z,1027.18
2019-04-20T11:28:55.608Z,1027.15
2019-04-20T11:29:54.360Z,1027.12
2019-04-20T11:30:54.354Z,1027.09
2019-04-20T11:31:56.073Z,1027.12
2019-04-20T11:32:54.333Z,1027.14
2019-04-20T11:33:54.322Z,1027.05
2019-04-20T11:34:56.463Z,1027.05
2019-04-20T11:35:54.985Z,1027.03
2019-04-20T11:36:55.085Z,1027.08
2019-04-20T11:37:55.451Z,1027.10
2019-04-20T11:38:54.474Z,1027.05
2019-04-20T11:39:54.866Z,1027.08
2019-04-20T11:41:04.071Z,1027.01
2019-04-20T11:41:55.925Z,1027.08
2019-04-20T11:42:55.379Z,1027.05
2019-04-20T11:43:55.636Z,1027.06
2019-04-20T11:44:54.912Z,1027.03
2019-04-20T11:45:54.560Z,1027.02
2019-04-20T11:46:54.515Z,1027.05
2019-04-20T11:47:55.622Z,1027.02
2019-04-20T11:48:55.318Z,1027.06
2019-04-20T11:49:55.392Z,1027.01
2019-04-20T11:50:54.163Z,1027.02
2019-04-20T11:51:55.337Z,1027.01
2019-04-20T11:52:55.264Z,1026.98
2019-04-20T11:53:54.404Z,1026.94
2019-04-20T11:54:54.653Z,1026.96
2019-04-20T11:55:54.283Z,1026.94
2019-04-20T11:56:55.368Z,1026.96
2019-04-20T11:57:54.223Z,1026.92
2019-04-20T11:58:54.091Z,1026.91
2019-04-20T11:59:54.990Z,1026.87
2019-04-20T12:01:03.207Z,1026.82
2019-04-20T12:02:00.514Z,1026.86
2019-04-20T12:02:58.556Z,1026.77
2019-04-20T12:04:01.710Z,1026.76
2019-04-20T12:05:10.053Z,1026.73
2019-04-20T12:05:57.898Z,1026.76
2019-04-20T12:06:55.014Z,1026.64
2019-04-20T12:07:55.294Z,1026.61
2019-04-20T12:08:54.932Z,1026.55
2019-04-20T12:09:59.373Z,1026.54
2019-04-20T12:10:59.893Z,1026.50
2019-04-20T12:12:06.906Z,1026.48
2019-04-20T12:12:55.702Z,1026.47
2019-04-20T12:13:54.531Z,1026.41
2019-04-20T12:14:54.787Z,1026.41
2019-04-20T12:15:53.987Z,1026.39
2019-04-20T12:16:53.922Z,1026.40
2019-04-20T12:17:53.933Z,1026.43
2019-04-20T12:18:54.660Z,1026.38
2019-04-20T12:19:53.894Z,1026.34
2019-04-20T12:20:54.851Z,1026.32
2019-04-20T12:21:53.949Z,1026.26
2019-04-20T12:22:54.615Z,1026.31
2019-04-20T12:23:54.128Z,1026.32
2019-04-20T12:24:54.114Z,1026.30
2019-04-20T12:25:54.358Z,1026.29